createdAt,value
2022-08-28T00:00:59.867Z,16.90
2022-08-28T00:03:26.806Z,16.90
2022-08-28T00:05:54.085Z,16.90
2022-08-28T00:08:21.296Z,16.80
2022-08-28T00:10:48.513Z,16.90
2022-08-28T00:13:19.919Z,16.80
2022-08-28T00:15:50.480Z,16.80
2022-08-28T00:18:18.696Z,16.80
2022-08-28T00:20:46.607Z,16.70
2022-08-28T00:23:14.761Z,16.70
2022-08-28T00:25:41.985Z,16.70
2022-08-28T00:28:15.368Z,16.70
2022-08-28T00:30:54.671Z,16.70
2022-08-28T00:33:28.130Z,16.70
2022-08-28T00:35:55.578Z,16.70
2022-08-28T00:38:24.283Z,16.70
2022-08-28T00:40:55.757Z,16.70
2022-08-28T00:43:40.106Z,16.70
2022-08-28T00:46:19.793Z,16.60
2022-08-28T00:48:47.653Z,16.70
2022-08-28T00:51:37.012Z,16.60
2022-08-28T00:54:07.739Z,16.60
2022-08-28T00:56:36.085Z,16.50
2022-08-28T00:59:09.046Z,16.50
2022-08-28T01:01:36.699Z,16.50
2022-08-28T01:04:06.316Z,16.50
2022-08-28T01:06:35.438Z,16.50
2022-08-28T01:09:03.509Z,16.50
2022-08-28T01:11:31.370Z,16.50
2022-08-28T01:14:01.943Z,16.40
2022-08-28T01:16:33.768Z,16.40
2022-08-28T01:19:02.374Z,16.40
2022-08-28T01:21:39.211Z,16.30
2022-08-28T01:24:18.617Z,16.30
2022-08-28T01:26:45.572Z,16.20
2022-08-28T01:29:13.236Z,16.10
2022-08-28T01:31:41.294Z,16.10
2022-08-28T01:34:10.551Z,16.00
2022-08-28T01:36:37.679Z,16.00
2022-08-28T01:39:12.083Z,16.10
2022-08-28T01:41:43.592Z,16.00
2022-08-28T01:44:10.618Z,16.00
2022-08-28T01:46:37.688Z,16.00
2022-08-28T01:49:06.523Z,15.90
2022-08-28T01:51:35.288Z,15.90
2022-08-28T01:54:06.229Z,15.80
2022-08-28T01:56:33.713Z,15.80
2022-08-28T01:59:03.499Z,15.80
2022-08-28T02:01:30.594Z,15.70
2022-08-28T02:03:57.612Z,15.70
2022-08-28T02:06:25.915Z,15.70
2022-08-28T02:08:55.721Z,15.60
2022-08-28T02:11:24.274Z,15.60
2022-08-28T02:13:52.877Z,15.60
2022-08-28T02:16:21.881Z,15.70
2022-08-28T02:18:49.117Z,15.80
2022-08-28T02:21:16.220Z,15.80
2022-08-28T02:23:44.696Z,15.70
2022-08-28T02:26:13.336Z,15.70
2022-08-28T02:28:41.331Z,15.70
2022-08-28T02:31:09.444Z,15.70
2022-08-28T02:33:43.694Z,15.70
2022-08-28T02:36:21.166Z,15.70
2022-08-28T02:38:48.315Z,15.70
2022-08-28T02:41:15.267Z,15.60
2022-08-28T02:43:42.328Z,15.60
2022-08-28T02:46:09.776Z,15.60
2022-08-28T02:48:38.715Z,15.60
2022-08-28T02:51:09.494Z,15.50
2022-08-28T02:53:36.866Z,15.50
2022-08-28T02:56:05.011Z,15.50
2022-08-28T02:58:35.435Z,15.50
2022-08-28T03:01:05.030Z,15.50
2022-08-28T03:03:32.634Z,15.50
2022-08-28T03:06:03.308Z,15.50
2022-08-28T03:08:31.714Z,15.40
2022-08-28T03:11:00.009Z,15.40
2022-08-28T03:13:27.748Z,15.40
2022-08-28T03:15:56.006Z,15.50
2022-08-28T03:18:25.416Z,15.60
2022-08-28T03:20:52.919Z,15.60
2022-08-28T03:23:28.942Z,15.70
2022-08-28T03:26:28.675Z,15.80
2022-08-28T03:28:57.681Z,15.90
2022-08-28T03:31:27.597Z,16.00
2022-08-28T03:33:55.068Z,16.10
2022-08-28T03:36:28.491Z,16.10
2022-08-28T03:39:01.164Z,16.20
2022-08-28T03:41:32.614Z,16.30
2022-08-28T03:44:03.460Z,16.30
2022-08-28T03:46:34.908Z,16.40
2022-08-28T03:49:09.734Z,16.50
2022-08-28T03:51:40.265Z,16.60
2022-08-28T03:54:09.780Z,16.60
2022-08-28T03:56:47.772Z,16.70
2022-08-28T03:59:17.995Z,16.80
2022-08-28T04:01:47.653Z,16.90
2022-08-28T04:04:17.822Z,17.10
2022-08-28T04:06:48.663Z,17.40
2022-08-28T04:09:18.267Z,17.70
2022-08-28T04:11:49.107Z,17.90
2022-08-28T04:14:16.144Z,18.30
2022-08-28T04:16:43.202Z,18.60
2022-08-28T04:19:10.231Z,18.80
2022-08-28T04:21:37.411Z,19.10
2022-08-28T04:24:08.991Z,19.40
2022-08-28T04:26:36.969Z,19.70
2022-08-28T04:29:05.582Z,20.10
2022-08-28T04:31:33.275Z,20.40
2022-08-28T04:34:02.458Z,20.70
2022-08-28T04:36:29.566Z,21.10
2022-08-28T04:38:58.102Z,21.40
2022-08-28T04:41:25.101Z,21.70
2022-08-28T04:43:52.991Z,22.00
2022-08-28T04:46:20.568Z,22.30
2022-08-28T04:48:47.666Z,22.70
2022-08-28T04:51:15.305Z,23.20
2022-08-28T04:53:43.072Z,23.40
2022-08-28T04:56:13.049Z,23.70
2022-08-28T04:58:41.954Z,24.00
2022-08-28T05:01:13.188Z,24.20
2022-08-28T05:03:40.848Z,24.60
2022-08-28T05:06:09.534Z,24.80
2022-08-28T05:08:36.719Z,25.10
2022-08-28T05:11:33.121Z,25.30
2022-08-28T05:14:04.581Z,25.50
2022-08-28T05:16:32.466Z,25.50
2022-08-28T05:19:01.001Z,25.40
2022-08-28T05:21:28.411Z,25.60
2022-08-28T05:23:57.559Z,25.80
2022-08-28T05:26:26.855Z,26.20
2022-08-28T05:28:56.465Z,26.70
2022-08-28T05:31:24.683Z,27.00
2022-08-28T05:33:53.624Z,27.30
2022-08-28T05:36:23.218Z,27.50
2022-08-28T05:38:56.863Z,27.60
2022-08-28T05:41:30.325Z,27.90
2022-08-28T05:44:03.217Z,27.90
2022-08-28T05:46:31.196Z,28.10
2022-08-28T05:49:00.266Z,28.10
2022-08-28T05:51:28.154Z,27.90
2022-08-28T05:53:57.750Z,27.80
2022-08-28T05:56:29.890Z,27.80
2022-08-28T05:59:01.734Z,27.90
2022-08-28T06:01:31.432Z,27.90
2022-08-28T06:04:01.250Z,28.10
2022-08-28T06:06:39.674Z,28.30
2022-08-28T06:09:13.884Z,28.50
2022-08-28T06:11:46.257Z,28.40
2022-08-28T06:14:20.732Z,28.40
2022-08-28T06:16:55.917Z,28.20
2022-08-28T06:19:27.978Z,28.30
2022-08-28T06:22:01.689Z,28.30
2022-08-28T06:24:41.941Z,28.30
2022-08-28T06:27:09.419Z,28.10
2022-08-28T06:29:36.659Z,28.00
2022-08-28T06:32:06.842Z,28.00
2022-08-28T06:34:34.472Z,28.10
2022-08-28T06:37:01.440Z,28.40
2022-08-28T06:39:28.418Z,28.50
2022-08-28T06:41:55.518Z,28.60
2022-08-28T06:44:22.739Z,28.70
2022-08-28T06:46:52.183Z,29.00
2022-08-28T06:49:19.479Z,29.30
2022-08-28T06:51:46.626Z,29.70
2022-08-28T06:54:18.444Z,30.00
2022-08-28T06:56:48.422Z,30.20
2022-08-28T06:59:15.393Z,30.30
2022-08-28T07:01:42.479Z,30.50
2022-08-28T07:04:11.343Z,30.60
2022-08-28T07:06:41.355Z,30.70
2022-08-28T07:09:11.461Z,30.90
2022-08-28T07:11:39.799Z,30.90
2022-08-28T07:14:07.326Z,31.00
2022-08-28T07:16:38.443Z,31.20
2022-08-28T07:19:07.301Z,31.50
2022-08-28T07:21:38.791Z,31.60
2022-08-28T07:24:08.397Z,31.50
2022-08-28T07:26:36.190Z,31.50
2022-08-28T07:29:09.875Z,31.70
2022-08-28T07:31:41.064Z,31.90
2022-08-28T07:34:09.636Z,32.00
2022-08-28T07:36:37.154Z,32.00
2022-08-28T07:39:05.468Z,31.90
2022-08-28T07:41:35.660Z,31.80
2022-08-28T07:44:21.592Z,31.50
2022-08-28T07:46:48.886Z,31.40
2022-08-28T07:49:17.256Z,31.30
2022-08-28T07:51:46.704Z,31.30
2022-08-28T07:54:17.627Z,31.30
2022-08-28T07:56:45.886Z,31.30
2022-08-28T07:59:16.841Z,31.30
2022-08-28T08:01:47.866Z,31.20
2022-08-28T08:04:16.653Z,30.90
2022-08-28T08:06:44.828Z,30.60
2022-08-28T08:09:15.690Z,30.40
2022-08-28T08:11:43.104Z,30.20
2022-08-28T08:14:10.588Z,30.10
2022-08-28T08:16:40.378Z,29.90
2022-08-28T08:19:10.116Z,29.60
2022-08-28T08:21:37.684Z,29.30
2022-08-28T08:24:05.417Z,29.20
2022-08-28T08:26:33.177Z,29.10
2022-08-28T08:29:00.871Z,29.00
2022-08-28T08:31:32.478Z,29.00
2022-08-28T08:34:03.759Z,29.00
2022-08-28T08:36:32.501Z,29.00
2022-08-28T08:39:00.632Z,29.00
2022-08-28T08:41:48.092Z,29.10
2022-08-28T08:44:33.938Z,29.10
2022-08-28T08:47:22.985Z,29.30
2022-08-28T08:49:57.531Z,29.40
2022-08-28T08:52:52.248Z,29.40
2022-08-28T08:55:31.575Z,29.60
2022-08-28T08:58:07.727Z,29.60
2022-08-28T09:01:09.080Z,29.50
2022-08-28T09:03:45.254Z,29.40
2022-08-28T09:06:25.857Z,29.40
2022-08-28T09:09:02.391Z,29.40
2022-08-28T09:11:33.416Z,29.50
2022-08-28T09:14:10.302Z,29.50
2022-08-28T09:16:40.880Z,29.50
2022-08-28T09:19:11.736Z,29.50
2022-08-28T09:21:44.926Z,29.40
2022-08-28T09:24:26.287Z,29.30
2022-08-28T09:27:13.696Z,29.30
2022-08-28T09:29:47.180Z,29.30
2022-08-28T09:32:30.926Z,29.40
2022-08-28T09:35:15.941Z,29.50
2022-08-28T09:37:44.282Z,29.50
2022-08-28T09:40:14.226Z,29.60
2022-08-28T09:43:07.595Z,29.70
2022-08-28T09:45:34.567Z,29.70
2022-08-28T09:48:03.569Z,29.70
2022-08-28T09:50:37.191Z,29.80
2022-08-28T09:53:10.101Z,29.80
2022-08-28T09:55:42.005Z,29.80
2022-08-28T09:58:09.889Z,29.90
2022-08-28T10:00:51.196Z,29.90
2022-08-28T10:03:30.951Z,30.00
2022-08-28T10:06:11.418Z,30.10
2022-08-28T10:09:06.160Z,30.10
2022-08-28T10:12:00.816Z,30.10
2022-08-28T10:14:59.331Z,30.10
2022-08-28T10:17:46.095Z,30.20
2022-08-28T10:20:37.345Z,30.10
2022-08-28T10:23:22.046Z,30.00
2022-08-28T10:25:55.737Z,30.00
2022-08-28T10:28:28.854Z,30.00
2022-08-28T10:31:07.388Z,30.00
2022-08-28T10:33:50.497Z,30.00
2022-08-28T10:36:33.571Z,30.00
2022-08-28T10:39:47.428Z,30.00
2022-08-28T10:42:18.910Z,30.10
2022-08-28T10:45:05.444Z,30.00
2022-08-28T10:47:36.149Z,30.10
2022-08-28T10:50:12.623Z,30.20
2022-08-28T10:52:46.607Z,30.20
2022-08-28T10:55:27.039Z,30.20
2022-08-28T10:58:02.619Z,30.20
2022-08-28T11:00:30.535Z,30.10
2022-08-28T11:03:32.689Z,30.10
2022-08-28T11:06:08.412Z,30.10
2022-08-28T11:08:38.169Z,30.10
2022-08-28T11:11:12.357Z,30.10
2022-08-28T11:13:48.650Z,30.10
2022-08-28T11:16:23.901Z,30.10
2022-08-28T11:19:18.395Z,30.10
2022-08-28T11:21:52.317Z,30.20
2022-08-28T11:24:43.681Z,30.20
2022-08-28T11:27:20.176Z,30.20
2022-08-28T11:30:11.332Z,30.30
2022-08-28T11:32:49.698Z,30.30
2022-08-28T11:35:44.232Z,30.40
2022-08-28T11:38:12.444Z,30.30
2022-08-28T11:40:40.784Z,30.20
2022-08-28T11:43:17.078Z,30.30
2022-08-28T11:45:47.079Z,30.30
2022-08-28T11:48:23.441Z,30.20
2022-08-28T11:51:03.878Z,30.30
2022-08-28T11:53:36.633Z,30.20
2022-08-28T11:56:08.937Z,30.10
2022-08-28T11:58:41.499Z,30.20
2022-08-28T12:01:11.937Z,30.30
2022-08-28T12:03:54.138Z,30.40
2022-08-28T12:06:54.486Z,30.50
2022-08-28T12:09:40.304Z,30.50
2022-08-28T12:12:32.829Z,30.50
2022-08-28T12:15:01.156Z,30.50
2022-08-28T12:17:39.494Z,30.50
2022-08-28T12:20:09.974Z,30.50
2022-08-28T12:22:56.315Z,30.50
2022-08-28T12:25:23.087Z,30.50
2022-08-28T12:27:50.041Z,30.60
2022-08-28T12:30:27.185Z,30.70
2022-08-28T12:33:03.233Z,30.70
2022-08-28T12:35:30.229Z,30.70
2022-08-28T12:37:57.437Z,30.60
2022-08-28T12:40:47.489Z,30.50
2022-08-28T12:43:18.640Z,30.50
2022-08-28T12:45:51.504Z,30.50
2022-08-28T12:48:24.193Z,30.50
2022-08-28T12:51:17.132Z,30.50
2022-08-28T12:53:48.692Z,30.50
2022-08-28T12:56:17.879Z,30.50
2022-08-28T12:58:44.692Z,30.50
2022-08-28T13:01:11.789Z,30.50
2022-08-28T13:03:42.851Z,30.40
2022-08-28T13:06:09.856Z,30.50
2022-08-28T13:08:37.084Z,30.50
2022-08-28T13:11:04.375Z,30.50
2022-08-28T13:13:34.279Z,30.50
2022-08-28T13:16:05.644Z,30.40
2022-08-28T13:18:40.249Z,30.30
2022-08-28T13:21:30.750Z,30.30
2022-08-28T13:24:01.569Z,30.30
2022-08-28T13:26:33.773Z,30.40
2022-08-28T13:29:16.737Z,30.40
2022-08-28T13:31:44.175Z,30.40
2022-08-28T13:34:20.190Z,30.40
2022-08-28T13:36:48.797Z,30.40
2022-08-28T13:39:16.962Z,30.40
2022-08-28T13:41:45.622Z,30.50
2022-08-28T13:44:44.822Z,30.50
2022-08-28T13:47:11.915Z,30.50
2022-08-28T13:49:38.701Z,30.30
2022-08-28T13:52:06.599Z,30.30
2022-08-28T13:54:34.298Z,30.30
2022-08-28T13:57:02.722Z,30.30
2022-08-28T13:59:30.069Z,30.30
2022-08-28T14:02:18.157Z,30.30
2022-08-28T14:04:45.175Z,30.20
2022-08-28T14:07:12.845Z,30.10
2022-08-28T14:09:39.885Z,30.00
2022-08-28T14:12:09.123Z,30.00
2022-08-28T14:14:36.564Z,30.00
2022-08-28T14:17:04.006Z,30.00
2022-08-28T14:19:30.887Z,30.00
2022-08-28T14:21:57.918Z,30.00
2022-08-28T14:24:25.082Z,30.10
2022-08-28T14:26:51.929Z,30.10
2022-08-28T14:29:19.211Z,30.00
2022-08-28T14:31:46.104Z,30.00
2022-08-28T14:34:14.324Z,30.10
2022-08-28T14:36:41.447Z,30.00
2022-08-28T14:39:09.067Z,30.00
2022-08-28T14:41:36.777Z,29.90
2022-08-28T14:44:04.505Z,29.90
2022-08-28T14:46:33.142Z,29.80
2022-08-28T14:49:01.334Z,29.70
2022-08-28T14:51:30.138Z,29.70
2022-08-28T14:53:57.958Z,29.60
2022-08-28T14:56:25.059Z,29.60
2022-08-28T14:58:51.955Z,29.50
2022-08-28T15:01:30.759Z,29.50
2022-08-28T15:04:07.919Z,29.40
2022-08-28T15:06:36.814Z,29.50
2022-08-28T15:09:04.285Z,29.50
2022-08-28T15:11:31.153Z,29.60
2022-08-28T15:13:58.602Z,29.60
2022-08-28T15:16:30.248Z,29.50
2022-08-28T15:18:58.544Z,29.60
2022-08-28T15:21:32.239Z,29.60
2022-08-28T15:23:59.769Z,29.50
2022-08-28T15:26:27.512Z,29.40
2022-08-28T15:28:55.970Z,29.40
2022-08-28T15:31:24.825Z,29.40
2022-08-28T15:33:52.126Z,29.40
2022-08-28T15:36:19.411Z,29.40
2022-08-28T15:39:04.613Z,29.30
2022-08-28T15:41:31.885Z,29.20
2022-08-28T15:44:01.171Z,29.00
2022-08-28T15:46:33.792Z,28.80
2022-08-28T15:49:01.408Z,28.70
2022-08-28T15:51:28.640Z,28.60
2022-08-28T15:53:55.570Z,28.50
2022-08-28T15:56:22.442Z,28.40
2022-08-28T15:58:49.574Z,28.30
2022-08-28T16:01:16.487Z,28.30
2022-08-28T16:03:43.327Z,28.20
2022-08-28T16:06:15.390Z,28.20
2022-08-28T16:08:42.750Z,28.00
2022-08-28T16:11:11.854Z,27.80
2022-08-28T16:13:38.689Z,27.70
2022-08-28T16:16:05.688Z,27.50
2022-08-28T16:18:32.589Z,27.20
2022-08-28T16:21:02.795Z,27.00
2022-08-28T16:23:32.597Z,26.90
2022-08-28T16:26:00.100Z,26.70
2022-08-28T16:28:27.106Z,26.50
2022-08-28T16:30:54.241Z,26.30
2022-08-28T16:33:22.334Z,26.10
2022-08-28T16:35:55.154Z,25.90
2022-08-28T16:38:23.565Z,25.80
2022-08-28T16:40:50.403Z,25.60
2022-08-28T16:43:17.364Z,25.50
2022-08-28T16:45:45.105Z,25.40
2022-08-28T16:48:13.039Z,25.20
2022-08-28T16:50:44.037Z,25.10
2022-08-28T16:53:12.175Z,24.90
2022-08-28T16:55:40.559Z,25.00
2022-08-28T16:58:07.593Z,25.00
2022-08-28T17:00:34.790Z,25.00
2022-08-28T17:03:13.140Z,24.90
2022-08-28T17:05:40.739Z,24.70
2022-08-28T17:08:09.193Z,24.50
2022-08-28T17:10:36.449Z,24.40
2022-08-28T17:13:03.296Z,24.30
2022-08-28T17:15:30.187Z,24.20
2022-08-28T17:17:57.066Z,24.00
2022-08-28T17:20:42.475Z,23.80
2022-08-28T17:23:09.400Z,23.70
2022-08-28T17:25:36.284Z,23.40
2022-08-28T17:28:03.406Z,23.20
2022-08-28T17:30:30.296Z,23.10
2022-08-28T17:32:57.195Z,23.00
2022-08-28T17:35:24.133Z,22.80
2022-08-28T17:37:53.711Z,22.60
2022-08-28T17:40:20.845Z,22.50
2022-08-28T17:42:48.954Z,22.30
2022-08-28T17:45:15.941Z,22.20
2022-08-28T17:47:42.832Z,22.10
2022-08-28T17:50:09.787Z,22.00
2022-08-28T17:52:36.745Z,22.00
2022-08-28T17:55:04.082Z,21.90
2022-08-28T17:57:31.085Z,21.80
2022-08-28T18:00:01.932Z,21.70
2022-08-28T18:02:32.204Z,21.50
2022-08-28T18:04:59.099Z,21.40
2022-08-28T18:07:28.439Z,21.20
2022-08-28T18:09:55.468Z,21.10
2022-08-28T18:12:22.334Z,21.00
2022-08-28T18:14:49.261Z,20.90
2022-08-28T18:17:16.351Z,20.90
2022-08-28T18:19:43.398Z,20.80
2022-08-28T18:22:10.814Z,20.70
2022-08-28T18:24:37.984Z,20.60
2022-08-28T18:27:05.160Z,20.60
2022-08-28T18:29:32.002Z,20.40
2022-08-28T18:31:58.875Z,20.30
2022-08-28T18:34:25.734Z,20.20
2022-08-28T18:36:52.578Z,20.10
2022-08-28T18:39:29.529Z,20.00
2022-08-28T18:41:58.089Z,20.00
2022-08-28T18:44:25.250Z,19.90
2022-08-28T18:46:52.136Z,19.80
2022-08-28T18:49:19.245Z,19.70
2022-08-28T18:51:46.128Z,19.60
2022-08-28T18:54:14.044Z,19.60
2022-08-28T18:56:43.692Z,19.50
2022-08-28T18:59:10.485Z,19.50
2022-08-28T19:01:37.716Z,19.30
2022-08-28T19:04:05.345Z,19.30
2022-08-28T19:06:32.392Z,19.30
2022-08-28T19:08:59.259Z,19.20
2022-08-28T19:11:26.530Z,19.10
2022-08-28T19:13:53.652Z,19.00
2022-08-28T19:16:20.729Z,18.90
2022-08-28T19:18:51.467Z,18.90
2022-08-28T19:21:19.962Z,18.80
2022-08-28T19:23:55.458Z,18.70
2022-08-28T19:26:23.125Z,18.70
2022-08-28T19:28:50.652Z,18.60
2022-08-28T19:31:17.951Z,18.50
2022-08-28T19:33:46.539Z,18.40
2022-08-28T19:36:14.042Z,18.50
2022-08-28T19:38:41.533Z,18.50
2022-08-28T19:41:09.559Z,18.40
2022-08-28T19:43:43.211Z,18.30
2022-08-28T19:46:18.730Z,18.30
2022-08-28T19:48:50.928Z,18.20
2022-08-28T19:51:22.575Z,18.20
2022-08-28T19:53:57.186Z,18.20
2022-08-28T19:56:26.905Z,18.20
2022-08-28T19:58:54.806Z,18.20
2022-08-28T20:01:21.687Z,18.20
2022-08-28T20:03:48.514Z,18.10
2022-08-28T20:06:15.305Z,18.10
2022-08-28T20:08:42.118Z,18.00
2022-08-28T20:11:09.805Z,17.90
2022-08-28T20:13:36.617Z,17.90
2022-08-28T20:16:04.445Z,17.80
2022-08-28T20:18:31.370Z,17.80
2022-08-28T20:20:58.182Z,17.70
2022-08-28T20:23:25.010Z,17.60
2022-08-28T20:25:51.898Z,17.60
2022-08-28T20:28:19.170Z,17.50
2022-08-28T20:30:46.974Z,17.50
2022-08-28T20:33:13.835Z,17.50
2022-08-28T20:35:40.815Z,17.40
2022-08-28T20:38:07.743Z,17.40
2022-08-28T20:40:34.925Z,17.30
2022-08-28T20:43:02.432Z,17.30
2022-08-28T20:45:29.575Z,17.20
2022-08-28T20:47:56.416Z,17.20
2022-08-28T20:50:23.222Z,17.30
2022-08-28T20:52:50.059Z,17.20
2022-08-28T20:55:17.006Z,17.20
2022-08-28T20:57:43.821Z,17.20
2022-08-28T21:00:11.504Z,17.20
2022-08-28T21:02:38.333Z,17.10
2022-08-28T21:05:05.487Z,17.10
2022-08-28T21:07:34.135Z,17.10
2022-08-28T21:10:07.148Z,17.10
2022-08-28T21:12:35.245Z,17.00
2022-08-28T21:15:02.475Z,16.90
2022-08-28T21:17:30.715Z,16.90
2022-08-28T21:20:02.879Z,16.80
2022-08-28T21:22:31.613Z,16.80
2022-08-28T21:24:58.572Z,16.70
2022-08-28T21:27:25.393Z,16.70
2022-08-28T21:29:54.612Z,16.60
2022-08-28T21:32:21.417Z,16.60
2022-08-28T21:34:48.232Z,16.60
2022-08-28T21:37:15.471Z,16.50
2022-08-28T21:39:42.246Z,16.50
2022-08-28T21:42:10.399Z,16.60
2022-08-28T21:44:37.672Z,16.50
2022-08-28T21:47:04.702Z,16.50
2022-08-28T21:49:31.555Z,16.50
2022-08-28T21:52:01.210Z,16.40
2022-08-28T21:54:28.264Z,16.40
2022-08-28T21:56:56.255Z,16.40
2022-08-28T21:59:33.062Z,16.40
2022-08-28T22:02:04.990Z,16.30
2022-08-28T22:04:31.879Z,16.30
2022-08-28T22:06:58.859Z,16.20
2022-08-28T22:09:25.668Z,16.20
2022-08-28T22:11:52.471Z,16.20
2022-08-28T22:14:19.301Z,16.20
2022-08-28T22:16:46.547Z,16.20
2022-08-28T22:19:13.406Z,16.20
2022-08-28T22:21:58.704Z,16.20
2022-08-28T22:24:25.503Z,16.10
2022-08-28T22:26:53.188Z,16.10
2022-08-28T22:29:24.652Z,16.10
2022-08-28T22:31:51.577Z,16.10
2022-08-28T22:34:18.514Z,16.00
2022-08-28T22:36:45.324Z,16.00
2022-08-28T22:39:12.167Z,15.90
2022-08-28T22:41:38.951Z,15.90
2022-08-28T22:44:07.081Z,15.90
2022-08-28T22:46:33.896Z,15.90
2022-08-28T22:49:00.706Z,15.80
2022-08-28T22:51:27.503Z,15.80
2022-08-28T22:53:54.521Z,15.70
2022-08-28T22:56:21.457Z,15.70
2022-08-28T22:58:48.292Z,15.70
2022-08-28T23:01:17.750Z,15.70
2022-08-28T23:03:45.137Z,15.70
2022-08-28T23:06:12.218Z,15.60
2022-08-28T23:08:39.040Z,15.60
2022-08-28T23:11:06.386Z,15.60
2022-08-28T23:13:33.263Z,15.60
2022-08-28T23:16:00.857Z,15.60
2022-08-28T23:18:27.994Z,15.50
2022-08-28T23:20:55.348Z,15.50
2022-08-28T23:23:23.109Z,15.50
2022-08-28T23:25:50.633Z,15.50
2022-08-28T23:28:17.776Z,15.40
2022-08-28T23:30:49.533Z,15.40
2022-08-28T23:33:23.846Z,15.40
2022-08-28T23:35:51.501Z,15.30
2022-08-28T23:38:18.328Z,15.30
2022-08-28T23:40:46.191Z,15.30
2022-08-28T23:45:50.271Z,15.30
2022-08-28T23:48:17.225Z,15.30
2022-08-28T23:50:44.108Z,15.30
2022-08-28T23:53:11.165Z,15.20
2022-08-28T23:55:38.762Z,15.20
2022-08-28T23:58:06.571Z,15.10
